| ID | Date Time (PST) |
Wind Direction |
Min Wind Speed (m/s) |
Ave Wind Speed (m/s) |
Max Wind Speed (m/s) |
Sigma Theta |
Temp (C) |
Temp (F) |
Relative Humidity (%) |
Pressure (hPa) |
Solar Rad (W/m^2) |
Precipitation (in.) |
Battery (V) |
DT/Dz (C/m) |
Stability |
| A26AA | 2026-08-30 16:30:00 | 220 | 3.6 | 6.8 | 10.2 | 10.8 | 30.5 | 86 | 14 | 867.5 | 343.6 | 0 | 13.43 | -0.087 | |
| A26AA | 2026-08-30 16:15:00 | 227 | 3.2 | 6.2 | 10.4 | 9.2 | 30.9 | 87 | 13 | 867.5 | 380.4 | 0 | 13.43 | -0.109 | |
| A26AA | 2026-08-30 16:00:00 | 210 | 1.7 | 5.1 | 9.1 | 16 | 30.9 | 87 | 13 | 867.6 | 430.9 | 0 | 13.42 | -0.103 | |
| A26AA | 2026-08-30 15:45:00 | 240 | 1.8 | 6.3 | 11 | 14.4 | 31.1 | 88 | 13 | 867.7 | 496.1 | 0 | 13.4 | -0.148 | |
| A26AA | 2026-08-30 15:30:00 | 212 | 1.4 | 5.5 | 10.2 | 13.1 | 31.2 | 88 | 12 | 867.8 | 537.8 | 0 | 13.4 | -0.14 | |
| A26AA | 2026-08-30 15:15:00 | 234 | 2.5 | 5.4 | 8.9 | 13.9 | 31.2 | 88 | 11 | 867.9 | 583 | 0 | 13.4 | -0.156 | |
| A26AA | 2026-08-30 15:00:00 | 228 | 2.9 | 6.2 | 11.4 | 9.6 | 31.3 | 88 | 12 | 868 | 639.3 | 0 | 13.4 | -0.173 | |
| A26AA | 2026-08-30 14:45:00 | 222 | 3.3 | 6.6 | 11.5 | 12.9 | 31.2 | 88 | 13 | 868.1 | 637 | 0 | 13.4 | -0.151 | |
| A26AA | 2026-08-30 14:30:00 | 188 | 1.7 | 5.4 | 9.9 | 13.9 | 31.3 | 88 | 13 | 868.3 | 696.9 | 0 | 13.4 | -0.171 | |
| A26AA | 2026-08-30 14:15:00 | 219 | 1.2 | 5.9 | 10.7 | 12.7 | 31.6 | 88 | 12 | 868.4 | 763.5 | 0 | 13.4 | -0.171 | |
| A26AA | 2026-08-30 14:00:00 | 237 | 1.5 | 5.6 | 11.2 | 16.8 | 31.4 | 88 | 12 | 868.6 | 787.3 | 0 | 13.4 | -0.193 | |
| A26AA | 2026-08-30 13:45:00 | 237 | 1.2 | 6.2 | 9.7 | 15.1 | 31.6 | 88 | 12 | 868.7 | 844.1 | 0 | 13.42 | -0.222 | |
| A26AA | 2026-08-30 13:30:00 | 228 | 1.5 | 5.1 | 9.7 | 15 | 31.1 | 88 | 12 | 868.8 | 872 | 0 | 13.43 | -0.181 | |
| A26AA | 2026-08-30 13:15:00 | 202 | 1 | 4.7 | 8.8 | 17.1 | 31 | 87 | 13 | 869.1 | 900 | 0 | 13.43 | -0.188 | |
| A26AA | 2026-08-30 13:00:00 | 235 | 1.8 | 5.8 | 10.8 | 14.1 | 30.8 | 87 | 14 | 869.2 | 922.6 | 0 | 13.43 | -0.215 | |
| A26AA | 2026-08-30 12:45:00 | 234 | 3.4 | 6 | 10.7 | 15.3 | 30.7 | 87 | 14 | 869.2 | 938.4 | 0 | 13.43 | -0.198 | |
| A26AA | 2026-08-30 12:30:00 | 223 | 2.3 | 5.1 | 8.7 | 16.5 | 30.5 | 86 | 14 | 869.3 | 953.2 | 0 | 13.43 | -0.208 | |
| A26AA | 2026-08-30 12:15:00 | 217 | 1.5 | 5.8 | 10.4 | 18 | 30.4 | 86 | 14 | 869.3 | 966 | 0 | 13.43 | -0.2 | |
| A26AA | 2026-08-30 12:00:00 | 220 | 1.1 | 5.1 | 8.2 | 14.9 | 30.2 | 86 | 15 | 869.4 | 963.7 | 0 | 13.44 | -0.181 | |
| A26AA | 2026-08-30 11:45:00 | 238 | 1.3 | 5.9 | 9.3 | 17.9 | 30 | 86 | 16 | 869.5 | 960.8 | 0 | 13.44 | -0.22 | |
| A26AA | 2026-08-30 11:30:00 | 231 | 1.3 | 5.5 | 11.1 | 13.2 | 29.7 | 85 | 16 | 869.5 | 881.9 | 0 | 13.44 | -0.204 | |
| A26AA | 2026-08-30 11:15:00 | 238 | 1.6 | 5.2 | 9.3 | 12.6 | 29.8 | 85 | 16 | 869.6 | 944.8 | 0 | 13.44 | -0.228 | |
| A26AA | 2026-08-30 11:00:00 | 255 | 2.6 | 5.5 | 8.9 | 11.8 | 29.3 | 84 | 18 | 869.7 | 931.2 | 0 | 13.44 | -0.203 | |
| A26AA | 2026-08-30 10:45:00 | 245 | 1.2 | 4.5 | 9.1 | 23.1 | 29.1 | 84 | 18 | 869.8 | 920.5 | 0 | 13.44 | -0.206 | |
| A26AA | 2026-08-30 10:30:00 | 219 | 1.6 | 4.7 | 9.1 | 22.7 | 28.7 | 83 | 19 | 869.9 | 908.5 | 0 | 13.42 | -0.178 | |
| A26AA | 2026-08-30 10:15:00 | 233 | 2.6 | 5.3 | 8.8 | 12.7 | 28.5 | 83 | 19 | 869.9 | 883.9 | 0 | 13.43 | -0.199 | |
| A26AA | 2026-08-30 10:00:00 | 251 | 2.5 | 5.2 | 8.5 | 13.3 | 28.2 | 82 | 20 | 869.9 | 853.9 | 0 | 13.47 | -0.183 | |
| A26AA | 2026-08-30 09:45:00 | 254 | 2.2 | 4.6 | 8.8 | 12.1 | 27.8 | 82 | 21 | 869.9 | 789.9 | 0 | 13.46 | -0.187 | |
| A26AA | 2026-08-30 09:30:00 | 255 | 2.4 | 5.1 | 8.3 | 11.6 | 27.7 | 81 | 20 | 869.9 | 813.1 | 0 | 13.46 | -0.188 | |
| A26AA | 2026-08-30 09:15:00 | 256 | 2.1 | 4.9 | 8.1 | 12.7 | 27.1 | 80 | 21 | 869.9 | 788.4 | 0 | 13.47 | -0.161 | |
| A26AA | 2026-08-30 09:00:00 | 258 | 2.6 | 5.9 | 9.2 | 10.9 | 27.1 | 80 | 21 | 869.8 | 724.7 | 0 | 13.47 | -0.181 | |
| A26AA | 2026-08-30 08:45:00 | 243 | 2.9 | 5.6 | 9.4 | 13.9 | 26.9 | 80 | 21 | 869.7 | 667.7 | 0 | 13.47 | -0.135 | |
| A26AA | 2026-08-30 08:30:00 | 251 | 3.3 | 5.6 | 9.1 | 10.2 | 26.7 | 80 | 22 | 869.6 | 619.9 | 0 | 13.47 | -0.138 | |
| A26AA | 2026-08-30 08:15:00 | 257 | 3.4 | 6 | 9.3 | 8.2 | 26.3 | 79 | 22 | 869.6 | 570.5 | 0 | 13.47 | -0.138 | |
| A26AA | 2026-08-30 08:00:00 | 267 | 3.1 | 5.6 | 7.8 | 8.5 | 26 | 78 | 23 | 869.5 | 515.5 | 0 | 13.47 | -0.123 | |
| A26AA | 2026-08-30 07:45:00 | 262 | 2.6 | 5.2 | 7.4 | 9.1 | 25.7 | 78 | 24 | 869.4 | 462.1 | 0 | 13.48 | -0.099 | |
| A26AA | 2026-08-30 07:30:00 | 269 | 3.4 | 5.8 | 7.6 | 8.3 | 25.4 | 77 | 23 | 869.4 | 408.8 | 0 | 13.49 | -0.091 | |
| A26AA | 2026-08-30 07:15:00 | 263 | 2.7 | 5.7 | 8.6 | 9.4 | 24.8 | 76 | 24 | 869.4 | 353.1 | 0 | 13.5 | -0.062 | |
| A26AA | 2026-08-30 07:00:00 | 226 | 1.3 | 4.7 | 7.5 | 12.6 | 25.2 | 77 | 23 | 869.2 | 296.9 | 0 | 13.48 | -0.032 | |
| A26AA | 2026-08-30 06:45:00 | 185 | 3.2 | 5.9 | 9.4 | 7.4 | 24.8 | 76 | 23 | 869 | 241.9 | 0 | 13.36 | -0.016 | |
| A26AA | 2026-08-30 06:30:00 | 184 | 3.3 | 6.5 | 10 | 8 | 24.5 | 76 | 24 | 868.9 | 187.6 | 0 | 13.23 | 0.009 | |
| A26AA | 2026-08-30 06:15:00 | 192 | 3.3 | 7 | 10.4 | 9.1 | 24.2 | 75 | 24 | 868.7 | 135.8 | 0 | 13.04 | 0.031 | |
| A26AA | 2026-08-30 06:00:00 | 190 | 4.8 | 7.8 | 11.4 | 7.8 | 24 | 75 | 24 | 868.6 | 90.3 | 0 | 12.72 | 0.048 | |
| A26AA | 2026-08-30 05:45:00 | 187 | 3.1 | 6.7 | 11.1 | 8.3 | 23.6 | 74 | 24 | 868.4 | 37.4 | 0 | 12.35 | 0.067 | |
| A26AA | 2026-08-30 05:30:00 | 181 | 3.2 | 7.3 | 11.7 | 9.4 | 23.9 | 75 | 24 | 868.2 | 4.1 | 0 | 12.21 | 0.072 | |
| A26AA | 2026-08-30 05:15:00 | 187 | 3.4 | 7.4 | 11.6 | 8.3 | 23.9 | 75 | 23 | 868.1 | 0 | 0 | 12.2 | 0.076 | |
| A26AA | 2026-08-30 05:00:00 | 194 | 1.2 | 5.2 | 11.4 | 18.6 | 23.4 | 74 | 24 | 868 | 0 | 0 | 12.21 | 0.114 | |
| A26AA | 2026-08-30 04:45:00 | 281 | 0.1 | 1.6 | 8.5 | 42.3 | 19.8 | 67 | 28 | 868 | 0 | 0 | 12.22 | 0.389 | |
| A26AA | 2026-08-30 04:30:00 | 234 | 0.1 | 1.1 | 2.4 | 27.1 | 17.8 | 64 | 32 | 868 | 0 | 0 | 12.23 | 0.561 | |
| A26AA | 2026-08-30 04:15:00 | 255 | 0.5 | 0.9 | 1.4 | 14.5 | 17.4 | 63 | 32 | 867.9 | 0 | 0 | 12.24 | 0.572 | |
| A26AA | 2026-08-30 04:00:00 | 231 | 0 | 0.4 | 1.3 | 16.1 | 18.1 | 64 | 32 | 867.9 | 0 | 0 | 12.25 | 0.489 | |
| A26AA | 2026-08-30 03:45:00 | 206 | 0 | 0.4 | 1.4 | 28.6 | 19.5 | 67 | 30 | 867.8 | 0 | 0 | 12.25 | 0.382 | |
| A26AA | 2026-08-30 03:30:00 | 256 | 0.4 | 1.6 | 3.4 | 18.9 | 20.3 | 68 | 29 | 867.7 | 0 | 0 | 12.26 | 0.394 | |
| A26AA | 2026-08-30 03:15:00 | 233 | 0.2 | 1.2 | 2.5 | 23.8 | 20.6 | 69 | 28 | 867.7 | 0 | 0 | 12.27 | 0.304 | |
| A26AA | 2026-08-30 03:00:00 | 244 | 0.3 | 1.6 | 3.2 | 20.1 | 21.7 | 71 | 27 | 867.7 | 0 | 0 | 12.28 | 0.269 | |
| A26AA | 2026-08-30 02:45:00 | 266 | 1.5 | 2.5 | 5.3 | 15.4 | 23.9 | 75 | 24 | 867.7 | 0 | 0 | 12.29 | 0.143 | |
| A26AA | 2026-08-30 02:30:00 | 204 | 2.3 | 3.9 | 6.7 | 9.3 | 25 | 77 | 23 | 867.5 | 0 | 0 | 12.29 | 0.103 | |
| A26AA | 2026-08-30 02:15:00 | 190 | 2.2 | 4.7 | 8.8 | 10.6 | 25.3 | 77 | 22 | 867.3 | 0 | 0 | 12.3 | 0.078 | |
| A26AA | 2026-08-30 02:00:00 | 175 | 2.8 | 5.6 | 8.1 | 9.1 | 25.6 | 78 | 23 | 867.3 | 0 | 0 | 12.31 | 0.072 | |
| A26AA | 2026-08-30 01:45:00 | 177 | 4.2 | 6.7 | 9.9 | 8.5 | 26 | 78 | 22 | 867.1 | 0 | 0 | 12.31 | 0.064 | |
| A26AA | 2026-08-30 01:30:00 | 180 | 3.9 | 8.1 | 12.6 | 8.2 | 26.2 | 79 | 22 | 867.1 | 0 | 0 | 12.32 | 0.062 | |
| A26AA | 2026-08-30 01:15:00 | 185 | 4.5 | 8.5 | 12.1 | 7.1 | 26.3 | 79 | 22 | 867.1 | 0 | 0 | 12.32 | 0.062 | |
| A26AA | 2026-08-30 01:00:00 | 189 | 4.1 | 7.9 | 12.7 | 8.7 | 26.2 | 79 | 23 | 867.1 | 0 | 0 | 12.33 | 0.063 | |
| A26AA | 2026-08-30 00:45:00 | 186 | 3.8 | 7.6 | 11.7 | 8.5 | 26.2 | 79 | 23 | 867.2 | 0 | 0 | 12.34 | 0.057 | |
| A26AA | 2026-08-30 00:30:00 | 181 | 3.1 | 7.3 | 11.7 | 8.1 | 26.1 | 78 | 23 | 867.3 | 0 | 0 | 12.34 | 0.07 | |
| A26AA | 2026-08-30 00:15:00 | 179 | 3.4 | 6.9 | 11 | 7.9 | 26.1 | 79 | 23 | 867.4 | 0 | 0 | 12.35 | 0.059 | |
| A26AA | 2026-08-30 00:00:00 | 180 | 4.6 | 7.9 | 11.3 | 7.9 | 26.4 | 79 | 23 | 867.4 | 0 | 0 | 12.35 | 0.061 | |
| A26AA | 2026-08-29 23:45:00 | 175 | 4.7 | 8.1 | 10.8 | 7.2 | 26.3 | 79 | 24 | 867.4 | 0 | 0 | 12.36 | 0.056 | |
| A26AA | 2026-08-29 23:30:00 | 180 | 4.6 | 7.7 | 11 | 7.6 | 26.4 | 79 | 24 | 867.4 | 0 | 0 | 12.36 | 0.056 | |
| A26AA | 2026-08-29 23:15:00 | 180 | 5.3 | 8.8 | 12.3 | 7.1 | 26.5 | 79 | 24 | 867.4 | 0 | 0 | 12.37 | 0.057 | |
| A26AA | 2026-08-29 23:00:00 | 179 | 3.1 | 6.8 | 11.9 | 7.6 | 26.5 | 79 | 25 | 867.4 | 0 | 0 | 12.37 | 0.061 | |
| A26AA | 2026-08-29 22:45:00 | 180 | 4.2 | 6.8 | 10 | 7.6 | 26.6 | 79 | 25 | 867.5 | 0 | 0 | 12.38 | 0.06 | |
| A26AA | 2026-08-29 22:30:00 | 172 | 3.3 | 6.3 | 9.6 | 7.7 | 26.7 | 80 | 24 | 867.5 | 0 | 0 | 12.38 | 0.066 | |
| A26AA | 2026-08-29 22:15:00 | 179 | 4.6 | 7.5 | 11 | 7.9 | 26.9 | 80 | 24 | 867.5 | 0 | 0 | 12.38 | 0.059 | |
| A26AA | 2026-08-29 22:00:00 | 186 | 4.2 | 7.5 | 11.7 | 9 | 26.9 | 80 | 24 | 867.6 | 0 | 0 | 12.39 | 0.054 | |
| A26AA | 2026-08-29 21:45:00 | 194 | 3.9 | 7.3 | 12.4 | 9.4 | 27 | 80 | 24 | 867.7 | 0 | 0 | 12.4 | 0.059 | |
| A26AA | 2026-08-29 21:30:00 | 197 | 4.2 | 8.1 | 12.1 | 8.8 | 27.2 | 80 | 24 | 867.7 | 0 | 0 | 12.4 | 0.057 | |
| A26AA | 2026-08-29 21:15:00 | 202 | 4.6 | 8.2 | 12.4 | 8.5 | 27.3 | 81 | 24 | 867.7 | 0 | 0 | 12.4 | 0.055 | |
| A26AA | 2026-08-29 21:00:00 | 204 | 4 | 7.7 | 12 | 8.3 | 27.4 | 81 | 25 | 867.7 | 0 | 0 | 12.41 | 0.055 | |
| A26AA | 2026-08-29 20:45:00 | 201 | 4.3 | 7.9 | 12.3 | 9.4 | 27.6 | 81 | 25 | 867.8 | 0 | 0 | 12.41 | 0.055 | |
| A26AA | 2026-08-29 20:30:00 | 199 | 3.9 | 7.9 | 11.2 | 8.4 | 27.8 | 82 | 25 | 867.7 | 0 | 0 | 12.42 | 0.044 | |
| A26AA | 2026-08-29 20:15:00 | 198 | 3.6 | 7.3 | 11.9 | 10.1 | 27.9 | 82 | 25 | 867.6 | 0 | 0 | 12.42 | 0.052 | |
| A26AA | 2026-08-29 20:00:00 | 199 | 3.8 | 6.9 | 10.6 | 8.3 | 27.9 | 82 | 25 | 867.5 | 0 | 0 | 12.42 | 0.055 | |
| A26AA | 2026-08-29 19:45:00 | 199 | 3 | 6.5 | 10.5 | 8.7 | 27.9 | 82 | 25 | 867.5 | 0 | 0 | 12.42 | 0.054 | |
| A26AA | 2026-08-29 19:30:00 | 200 | 3.6 | 6.4 | 9.7 | 8.7 | 28 | 82 | 25 | 867.3 | 0 | 0 | 12.43 | 0.056 | |
| A26AA | 2026-08-29 19:15:00 | 204 | 3.8 | 6.9 | 10.2 | 8.6 | 28.3 | 82 | 24 | 867.2 | 0 | 0 | 12.43 | 0.048 | |
| A26AA | 2026-08-29 19:00:00 | 202 | 3.8 | 7.1 | 10.7 | 9.1 | 28.5 | 83 | 23 | 867.1 | 0 | 0 | 12.44 | 0.049 | |
| A26AA | 2026-08-29 18:45:00 | 204 | 3.4 | 7.3 | 11.8 | 9.4 | 28.7 | 83 | 23 | 867 | 0 | 0 | 12.44 | 0.032 | |
| A26AA | 2026-08-29 18:30:00 | 199 | 3.7 | 8.1 | 12.6 | 9.4 | 28.9 | 84 | 23 | 867.1 | 5 | 0 | 12.45 | 0.031 | |
| A26AA | 2026-08-29 18:15:00 | 204 | 4.4 | 7.8 | 12.5 | 8.3 | 29.2 | 84 | 22 | 867.1 | 25.9 | 0 | 12.47 | 0.022 | |
| A26AA | 2026-08-29 18:00:00 | 203 | 4.6 | 8.5 | 12.9 | 8.1 | 29.6 | 85 | 22 | 867.1 | 79.1 | 0 | 12.52 | 0.009 | |
| A26AA | 2026-08-29 17:45:00 | 204 | 4.5 | 8.9 | 12.4 | 8 | 29.8 | 85 | 22 | 867.1 | 65.7 | 0 | 12.52 | 0 | |
| A26AA | 2026-08-29 17:30:00 | 202 | 5.3 | 8.8 | 12.8 | 7.8 | 29.8 | 85 | 23 | 867.2 | 83.9 | 0 | 12.54 | 0.003 | |
| A26AA | 2026-08-29 17:15:00 | 205 | 5 | 9.5 | 14.1 | 8.3 | 30.1 | 86 | 22 | 867.2 | 67.3 | 0 | 12.64 | -0.019 | |
| A26AA | 2026-08-29 17:00:00 | 203 | 6 | 9.7 | 14.1 | 8.2 | 30.9 | 87 | 22 | 867.2 | 257.7 | 0 | 12.93 | -0.056 | |
| A26AA | 2026-08-29 16:45:00 | 199 | 5.3 | 9.5 | 13.1 | 8.3 | 31 | 87 | 21 | 867.2 | 216.1 | 0 | 12.78 | -0.049 | |